Time;durP1;ratioP1;P1;durP2;ratioP2;P2;SDS_P1;SDS_P2;PMS_P1;PMS_P2;Temp;Humidity;BMP_temperature;BMP_pressure;BME280_temperature;BME280_humidity;BME280_pressure;Samples;Min_cycle;Max_cycle;Signal;HPM_P1;HPM_P2
2023/07/20 00:01:28;;;;;;;0.98;0.98;;;;;;;;;;5065166;28;20239;-61
2023/07/20 00:03:55;;;;;;;5.40;1.00;;;;;;;;;;5067830;28;20215;-61
2023/07/20 00:06:23;;;;;;;0.70;0.70;;;;;;;;;;5067069;28;20226;-61
2023/07/20 00:08:50;;;;;;;2.03;0.98;;;;;;;;;;5047990;28;20557;-61
2023/07/20 00:11:18;;;;;;;1.02;0.80;;;;;;;;;;5051166;28;20208;-61
2023/07/20 00:13:46;;;;;;;0.80;0.80;;;;;;;;;;5053215;28;20204;-61
2023/07/20 00:16:14;;;;;;;0.85;0.85;;;;;;;;;;5051675;28;20202;-61
2023/07/20 00:18:41;;;;;;;1.50;0.90;;;;;;;;;;5059128;28;20298;-61
2023/07/20 00:21:08;;;;;;;0.68;0.68;;;;;;;;;;5048035;28;20204;-61
2023/07/20 00:23:35;;;;;;;1.05;1.05;;;;;;;;;;5056136;28;20211;-61
2023/07/20 00:26:02;;;;;;;1.45;0.80;;;;;;;;;;5047732;28;20236;-61
2023/07/20 00:28:29;;;;;;;0.77;0.77;;;;;;;;;;5058569;28;20207;-61
2023/07/20 00:30:57;;;;;;;0.88;0.88;;;;;;;;;;5067792;28;20203;-61
2023/07/20 00:33:24;;;;;;;0.60;0.60;;;;;;;;;;5067489;28;20222;-61
2023/07/20 00:35:52;;;;;;;0.73;0.73;;;;;;;;;;5066932;28;20674;-61
2023/07/20 00:38:20;;;;;;;1.52;0.70;;;;;;;;;;5050059;28;20685;-61
2023/07/20 00:40:48;;;;;;;0.88;0.88;;;;;;;;;;5055807;28;20268;-61
2023/07/20 00:43:15;;;;;;;1.05;0.90;;;;;;;;;;5055955;28;20277;-61
2023/07/20 00:45:42;;;;;;;1.05;0.70;;;;;;;;;;5064362;28;20254;-61
2023/07/20 00:48:11;;;;;;;1.15;0.85;;;;;;;;;;5071348;28;20211;-61
2023/07/20 00:50:38;;;;;;;2.00;0.95;;;;;;;;;;5071026;28;20325;-61
2023/07/20 00:53:05;;;;;;;0.90;0.90;;;;;;;;;;5057793;28;20206;-60
2023/07/20 00:55:33;;;;;;;0.82;0.70;;;;;;;;;;5069778;28;20294;-60
2023/07/20 00:58:00;;;;;;;2.67;0.85;;;;;;;;;;5062636;28;20207;-60
2023/07/20 01:00:27;;;;;;;1.45;1.20;;;;;;;;;;5068729;28;20210;-61
2023/07/20 01:02:54;;;;;;;0.80;0.80;;;;;;;;;;5063576;28;20219;-61
2023/07/20 01:05:23;;;;;;;0.82;0.82;;;;;;;;;;5060107;28;20226;-61
2023/07/20 01:07:54;;;;;;;1.98;0.85;;;;;;;;;;5062048;28;20237;-60
2023/07/20 01:10:22;;;;;;;0.82;0.82;;;;;;;;;;5050694;28;20215;-61
2023/07/20 01:12:51;;;;;;;0.75;0.75;;;;;;;;;;5066935;28;20211;-61
2023/07/20 01:15:18;;;;;;;0.73;0.73;;;;;;;;;;5066276;28;20695;-61
2023/07/20 01:17:46;;;;;;;1.58;0.90;;;;;;;;;;5052644;28;20253;-61
2023/07/20 01:20:15;;;;;;;1.13;1.00;;;;;;;;;;5063257;28;20276;-60
2023/07/20 01:22:49;;;;;;;2.35;1.58;;;;;;;;;;5069656;28;20696;-61
2023/07/20 01:25:34;;;;;;;1.73;1.67;;;;;;;;;;5050194;28;20684;-61
2023/07/20 01:28:19;;;;;;;1.83;1.73;;;;;;;;;;5050228;28;20198;-61
2023/07/20 01:30:51;;;;;;;2.60;2.40;;;;;;;;;;5050458;28;20213;-60
2023/07/20 01:33:21;;;;;;;7.50;6.80;;;;;;;;;;5050213;28;20218;-60
2023/07/20 01:35:50;;;;;;;13.48;8.90;;;;;;;;;;5063694;28;20207;-60
2023/07/20 01:38:17;;;;;;;40.40;21.10;;;;;;;;;;5066705;28;20207;-60
2023/07/20 01:40:44;;;;;;;43.75;25.05;;;;;;;;;;5065691;28;20208;-61
2023/07/20 01:43:12;;;;;;;64.55;31.70;;;;;;;;;;5058015;28;20338;-61
2023/07/20 01:45:39;;;;;;;45.30;24.08;;;;;;;;;;5069394;28;20210;-61
2023/07/20 01:48:07;;;;;;;31.23;16.63;;;;;;;;;;5066169;28;20200;-61
2023/07/20 01:50:35;;;;;;;40.05;19.63;;;;;;;;;;5070211;28;20203;-61
2023/07/20 01:53:02;;;;;;;19.55;10.45;;;;;;;;;;5055688;28;20203;-61
2023/07/20 01:55:29;;;;;;;13.25;6.88;;;;;;;;;;5068831;28;20211;-61
2023/07/20 01:57:56;;;;;;;10.02;6.45;;;;;;;;;;5069285;28;20261;-61
2023/07/20 02:00:25;;;;;;;8.57;4.32;;;;;;;;;;5069502;28;21091;-61
2023/07/20 02:02:52;;;;;;;4.93;3.65;;;;;;;;;;5069669;28;20593;-61
2023/07/20 02:05:19;;;;;;;6.82;3.13;;;;;;;;;;5070098;28;20214;-61
2023/07/20 02:07:47;;;;;;;2.33;2.13;;;;;;;;;;5066330;28;20235;-60
2023/07/20 02:10:14;;;;;;;5.28;2.58;;;;;;;;;;5070221;28;20596;-61
2023/07/20 02:12:41;;;;;;;4.10;2.90;;;;;;;;;;5064991;28;20207;-61
2023/07/20 02:15:09;;;;;;;2.20;1.65;;;;;;;;;;5051231;28;20211;-61
2023/07/20 02:17:36;;;;;;;2.58;1.58;;;;;;;;;;5049814;28;20227;-60
2023/07/20 02:20:04;;;;;;;2.55;1.50;;;;;;;;;;5068789;28;20206;-61
2023/07/20 02:22:31;;;;;;;2.58;1.52;;;;;;;;;;5069681;28;20226;-61
2023/07/20 02:24:59;;;;;;;2.20;1.58;;;;;;;;;;5069299;28;20207;-61
2023/07/20 02:27:26;;;;;;;2.53;1.38;;;;;;;;;;5054290;28;20223;-61
2023/07/20 02:29:53;;;;;;;1.08;1.08;;;;;;;;;;5068156;28;20215;-61
2023/07/20 02:32:20;;;;;;;1.63;1.20;;;;;;;;;;5069159;28;20586;-61
2023/07/20 02:34:48;;;;;;;2.58;1.38;;;;;;;;;;5068725;28;20214;-61
2023/07/20 02:37:15;;;;;;;9.85;2.28;;;;;;;;;;5050956;28;20572;-61
2023/07/20 02:39:42;;;;;;;5.63;1.67;;;;;;;;;;5049398;28;20215;-61
2023/07/20 02:42:10;;;;;;;4.10;1.65;;;;;;;;;;5049513;28;20215;-61
2023/07/20 02:44:37;;;;;;;17.48;2.13;;;;;;;;;;5058607;28;20299;-61
2023/07/20 02:47:04;;;;;;;2.65;1.52;;;;;;;;;;5057785;28;20235;-60
2023/07/20 02:49:31;;;;;;;2.97;1.50;;;;;;;;;;5069320;28;20222;-61
2023/07/20 02:51:58;;;;;;;7.68;1.63;;;;;;;;;;5054105;28;20218;-61
2023/07/20 02:54:25;;;;;;;4.22;1.50;;;;;;;;;;5056153;28;20211;-61
2023/07/20 02:56:52;;;;;;;1.50;1.20;;;;;;;;;;5069075;28;20587;-61
2023/07/20 02:59:21;;;;;;;6.10;1.50;;;;;;;;;;5068364;28;20210;-61
2023/07/20 03:01:48;;;;;;;3.25;1.40;;;;;;;;;;5068378;28;20257;-61
2023/07/20 03:04:16;;;;;;;13.20;1.83;;;;;;;;;;5054689;28;20204;-61
2023/07/20 03:06:43;;;;;;;1.63;1.50;;;;;;;;;;5048481;28;20220;-61
2023/07/20 03:09:10;;;;;;;1.88;1.30;;;;;;;;;;5047173;28;20211;-61
2023/07/20 03:11:37;;;;;;;1.85;1.52;;;;;;;;;;5048150;28;20203;-61
2023/07/20 03:14:04;;;;;;;2.90;1.38;;;;;;;;;;5048097;28;20583;-60
2023/07/20 03:16:33;;;;;;;4.22;1.30;;;;;;;;;;5048174;28;20297;-60
2023/07/20 03:19:00;;;;;;;6.75;1.30;;;;;;;;;;5048111;28;20234;-61
2023/07/20 03:21:27;;;;;;;1.70;1.35;;;;;;;;;;5067766;28;20717;-60
2023/07/20 03:23:54;;;;;;;1.40;1.35;;;;;;;;;;5067643;28;20221;-61
2023/07/20 03:26:21;;;;;;;3.25;1.60;;;;;;;;;;5068361;28;20206;-60
2023/07/20 03:28:48;;;;;;;16.38;1.55;;;;;;;;;;5062411;28;20763;-60
2023/07/20 03:31:15;;;;;;;1.65;1.20;;;;;;;;;;5061276;28;20206;-61
2023/07/20 03:33:44;;;;;;;1.60;1.50;;;;;;;;;;5068164;28;20216;-61
2023/07/20 03:36:11;;;;;;;2.25;1.00;;;;;;;;;;5065643;28;20211;-60
2023/07/20 03:38:38;;;;;;;13.52;1.60;;;;;;;;;;5050387;28;20686;-61
2023/07/20 03:41:05;;;;;;;2.22;1.00;;;;;;;;;;5061329;28;20216;-60
2023/07/20 03:43:32;;;;;;;4.32;1.77;;;;;;;;;;5055824;28;20231;-61
2023/07/20 03:45:59;;;;;;;2.08;1.40;;;;;;;;;;5058399;28;20214;-60
2023/07/20 03:48:26;;;;;;;1.70;1.60;;;;;;;;;;5065425;28;20572;-60
2023/07/20 03:50:55;;;;;;;8.80;1.17;;;;;;;;;;5049351;28;20223;-60
2023/07/20 03:53:22;;;;;;;2.30;1.40;;;;;;;;;;5053554;28;20206;-61
2023/07/20 03:55:50;;;;;;;1.30;1.30;;;;;;;;;;5068171;28;20244;-60
2023/07/20 03:58:17;;;;;;;6.88;1.50;;;;;;;;;;5066799;28;20841;-60
2023/07/20 04:00:46;;;;;;;1.60;1.50;;;;;;;;;;5051182;28;20207;-60
2023/07/20 04:03:13;;;;;;;1.50;1.40;;;;;;;;;;5047957;28;20656;-60
2023/07/20 04:05:40;;;;;;;1.60;1.40;;;;;;;;;;5047896;28;20261;-60
2023/07/20 04:08:08;;;;;;;13.57;1.83;;;;;;;;;;5059978;28;20223;-60
2023/07/20 04:10:35;;;;;;;3.65;1.30;;;;;;;;;;5068022;28;20659;-60
2023/07/20 04:13:02;;;;;;;4.18;1.70;;;;;;;;;;5065377;28;20585;-60
2023/07/20 04:15:29;;;;;;;4.80;1.60;;;;;;;;;;5064840;28;20211;-61
2023/07/20 04:17:57;;;;;;;2.15;1.60;;;;;;;;;;5048813;28;20301;-60
2023/07/20 04:20:24;;;;;;;8.32;1.73;;;;;;;;;;5048273;28;20253;-61
2023/07/20 04:22:51;;;;;;;5.47;1.45;;;;;;;;;;5066214;28;20206;-60
2023/07/20 04:25:20;;;;;;;3.00;1.92;;;;;;;;;;5066740;28;20678;-60
2023/07/20 04:27:47;;;;;;;1.60;1.40;;;;;;;;;;5052289;28;20235;-60
2023/07/20 04:30:15;;;;;;;6.45;1.70;;;;;;;;;;5047870;28;20215;-61
2023/07/20 04:32:44;;;;;;;5.32;1.92;;;;;;;;;;5055767;28;20575;-60
2023/07/20 04:35:11;;;;;;;2.95;1.90;;;;;;;;;;5052310;28;20269;-59
2023/07/20 04:37:46;;;;;;;1.88;1.77;;;;;;;;;;5059372;28;20261;-60
2023/07/20 04:40:13;;;;;;;2.78;1.70;;;;;;;;;;5060759;28;20241;-59
2023/07/20 04:42:41;;;;;;;5.28;1.80;;;;;;;;;;5049948;28;20735;-59
2023/07/20 04:45:09;;;;;;;1.67;1.55;;;;;;;;;;5067518;28;20207;-59
2023/07/20 04:47:36;;;;;;;4.10;1.65;;;;;;;;;;5066891;28;20242;-59
2023/07/20 04:52:56;;;;;;;2.60;1.33;;;;;;;;;;5063088;28;20226;-60
2023/07/20 04:55:23;;;;;;;3.13;1.35;;;;;;;;;;5063015;28;20206;-60
2023/07/20 04:57:52;;;;;;;1.50;1.40;;;;;;;;;;5047447;28;20603;-60
2023/07/20 05:00:19;;;;;;;2.53;1.80;;;;;;;;;;5052894;28;20212;-60
2023/07/20 05:02:48;;;;;;;1.50;1.40;;;;;;;;;;5067460;28;20207;-60
2023/07/20 05:05:16;;;;;;;2.20;1.35;;;;;;;;;;5057700;28;20204;-60
2023/07/20 05:07:43;;;;;;;1.02;1.02;;;;;;;;;;5046917;28;20398;-61
2023/07/20 05:10:10;;;;;;;0.82;0.82;;;;;;;;;;5047231;28;20223;-60
2023/07/20 05:12:37;;;;;;;1.52;1.20;;;;;;;;;;5057917;28;20234;-60
2023/07/20 05:15:06;;;;;;;1.00;1.00;;;;;;;;;;5063986;28;20592;-60
2023/07/20 05:17:33;;;;;;;1.20;1.00;;;;;;;;;;5057783;28;20222;-60
2023/07/20 05:20:00;;;;;;;1.02;0.88;;;;;;;;;;5057416;28;20214;-61
2023/07/20 05:22:27;;;;;;;0.90;0.70;;;;;;;;;;5062631;28;20585;-60
2023/07/20 05:24:54;;;;;;;0.57;0.57;;;;;;;;;;5055556;28;20219;-62
2023/07/20 05:27:21;;;;;;;0.82;0.80;;;;;;;;;;5046885;28;20223;-62
2023/07/20 05:29:48;;;;;;;0.70;0.70;;;;;;;;;;5065856;28;20238;-61
2023/07/20 05:32:17;;;;;;;0.70;0.70;;;;;;;;;;5060293;28;20662;-61
2023/07/20 05:34:44;;;;;;;0.50;0.50;;;;;;;;;;5062214;28;20215;-61
2023/07/20 05:37:11;;;;;;;1.05;0.57;;;;;;;;;;5063672;28;20677;-61
2023/07/20 05:39:38;;;;;;;0.30;0.30;;;;;;;;;;5070420;28;20211;-62
2023/07/20 05:42:05;;;;;;;0.70;0.50;;;;;;;;;;5070577;28;20211;-61
2023/07/20 05:44:32;;;;;;;0.50;0.50;;;;;;;;;;5069830;28;20218;-61
2023/07/20 05:46:59;;;;;;;0.30;0.30;;;;;;;;;;5059528;28;20214;-61
2023/07/20 05:49:28;;;;;;;0.40;0.40;;;;;;;;;;5065080;28;20735;-61
2023/07/20 05:51:56;;;;;;;0.55;0.30;;;;;;;;;;5066136;28;20207;-61
2023/07/20 05:54:23;;;;;;;0.85;0.40;;;;;;;;;;5070252;28;20215;-61
2023/07/20 05:56:50;;;;;;;0.80;0.57;;;;;;;;;;5068647;28;20215;-60
2023/07/20 05:59:17;;;;;;;0.40;0.40;;;;;;;;;;5069915;28;20198;-61
2023/07/20 06:01:44;;;;;;;0.50;0.50;;;;;;;;;;5069686;28;20211;-61
2023/07/20 06:04:11;;;;;;;0.32;0.32;;;;;;;;;;5068390;28;20203;-61
2023/07/20 06:06:55;;;;;;;0.40;0.40;;;;;;;;;;5070710;28;20215;-61
2023/07/20 06:09:22;;;;;;;0.52;0.50;;;;;;;;;;5061279;28;20223;-61
2023/07/20 06:11:49;;;;;;;0.50;0.50;;;;;;;;;;5052067;28;20584;-61
2023/07/20 06:14:18;;;;;;;0.40;0.40;;;;;;;;;;5049508;28;20214;-59
2023/07/20 06:16:45;;;;;;;0.40;0.40;;;;;;;;;;5049458;28;20239;-59
2023/07/20 06:19:12;;;;;;;0.60;0.60;;;;;;;;;;5050761;28;20210;-60
2023/07/20 06:21:39;;;;;;;0.30;0.30;;;;;;;;;;5068319;28;20206;-61
2023/07/20 06:24:08;;;;;;;0.88;0.55;;;;;;;;;;5069646;28;20214;-60
2023/07/20 06:26:38;;;;;;;0.40;0.40;;;;;;;;;;5069643;28;20207;-61
2023/07/20 06:29:05;;;;;;;0.32;0.32;;;;;;;;;;5068948;28;20223;-61
2023/07/20 06:31:33;;;;;;;0.35;0.35;;;;;;;;;;5069266;28;20210;-60
2023/07/20 06:34:00;;;;;;;0.40;0.40;;;;;;;;;;5067018;28;20210;-61
2023/07/20 06:36:28;;;;;;;0.30;0.30;;;;;;;;;;5051196;28;20204;-61
2023/07/20 06:38:55;;;;;;;0.40;0.40;;;;;;;;;;5066327;28;20199;-61
2023/07/20 06:41:23;;;;;;;0.40;0.40;;;;;;;;;;5068773;28;20206;-61
2023/07/20 06:43:52;;;;;;;0.52;0.50;;;;;;;;;;5069136;28;20227;-61
2023/07/20 06:46:19;;;;;;;0.35;0.35;;;;;;;;;;5066630;28;20366;-61
2023/07/20 06:48:54;;;;;;;0.60;0.60;;;;;;;;;;5068520;28;20227;-61
2023/07/20 06:51:21;;;;;;;0.45;0.45;;;;;;;;;;5063493;28;20202;-61
2023/07/20 06:53:49;;;;;;;0.45;0.45;;;;;;;;;;5069098;28;20839;-61
2023/07/20 06:56:16;;;;;;;0.40;0.40;;;;;;;;;;5068157;28;20791;-61
2023/07/20 06:58:44;;;;;;;1.08;0.50;;;;;;;;;;5066443;28;20214;-63
2023/07/20 07:01:11;;;;;;;0.40;0.40;;;;;;;;;;5061076;28;20551;-62
2023/07/20 07:03:38;;;;;;;0.47;0.47;;;;;;;;;;5062805;28;20296;-60
2023/07/20 07:06:05;;;;;;;0.57;0.57;;;;;;;;;;5055198;28;20200;-60
2023/07/20 07:08:32;;;;;;;0.40;0.40;;;;;;;;;;5048361;28;20240;-60
2023/07/20 07:10:59;;;;;;;0.73;0.65;;;;;;;;;;5048075;28;20243;-58
2023/07/20 07:13:26;;;;;;;0.40;0.40;;;;;;;;;;5048167;28;20204;-59
2023/07/20 07:15:55;;;;;;;0.47;0.47;;;;;;;;;;5048482;28;20636;-60
2023/07/20 07:18:22;;;;;;;0.85;0.40;;;;;;;;;;5052168;28;20744;-60
2023/07/20 07:20:53;;;;;;;0.47;0.40;;;;;;;;;;5062362;28;20225;-60
2023/07/20 07:23:20;;;;;;;0.60;0.40;;;;;;;;;;5065240;28;20249;-60
2023/07/20 07:25:47;;;;;;;0.57;0.57;;;;;;;;;;5064402;28;20223;-60
2023/07/20 07:28:14;;;;;;;1.20;0.45;;;;;;;;;;5064287;28;20876;-61
2023/07/20 07:30:41;;;;;;;0.43;0.43;;;;;;;;;;5067825;28;20214;-60
2023/07/20 07:33:10;;;;;;;0.60;0.60;;;;;;;;;;5067585;28;20211;-59
2023/07/20 07:35:37;;;;;;;0.43;0.43;;;;;;;;;;5065589;28;20215;-60
2023/07/20 07:38:05;;;;;;;1.08;0.50;;;;;;;;;;5067223;28;20555;-60
2023/07/20 07:40:32;;;;;;;0.50;0.50;;;;;;;;;;5051685;28;20258;-60
2023/07/20 07:42:59;;;;;;;0.70;0.70;;;;;;;;;;5046533;28;20576;-60
2023/07/20 07:45:26;;;;;;;0.40;0.40;;;;;;;;;;5047118;28;20204;-61
2023/07/20 07:47:53;;;;;;;0.70;0.70;;;;;;;;;;5047098;28;20611;-60
2023/07/20 07:50:21;;;;;;;0.50;0.50;;;;;;;;;;5046544;28;20200;-60
2023/07/20 07:52:48;;;;;;;0.50;0.50;;;;;;;;;;5047086;28;20207;-60
2023/07/20 07:55:17;;;;;;;0.50;0.50;;;;;;;;;;5060297;28;20207;-60
2023/07/20 07:57:44;;;;;;;0.85;0.50;;;;;;;;;;5066511;28;20673;-60
2023/07/20 08:00:14;;;;;;;1.33;0.50;;;;;;;;;;5055909;28;20518;-60
2023/07/20 08:02:42;;;;;;;0.55;0.55;;;;;;;;;;5046628;28;20234;-64
2023/07/20 08:05:09;;;;;;;0.50;0.50;;;;;;;;;;5046649;28;20356;-61
2023/07/20 08:07:37;;;;;;;0.60;0.60;;;;;;;;;;5046911;28;20211;-61
2023/07/20 08:10:04;;;;;;;0.88;0.60;;;;;;;;;;5059708;28;20238;-61
2023/07/20 08:12:31;;;;;;;0.70;0.70;;;;;;;;;;5066344;28;20782;-61
2023/07/20 08:14:58;;;;;;;0.80;0.80;;;;;;;;;;5066094;28;20663;-61
2023/07/20 08:17:26;;;;;;;0.68;0.68;;;;;;;;;;5053871;28;20666;-60
2023/07/20 08:19:53;;;;;;;0.43;0.43;;;;;;;;;;5046577;28;20249;-61
2023/07/20 08:22:20;;;;;;;0.70;0.70;;;;;;;;;;5046441;28;20238;-61
2023/07/20 08:24:48;;;;;;;0.47;0.47;;;;;;;;;;5061834;28;20624;-62
2023/07/20 08:27:15;;;;;;;0.63;0.63;;;;;;;;;;5066699;28;20213;-61
2023/07/20 08:29:42;;;;;;;0.70;0.70;;;;;;;;;;5054244;28;20238;-61
2023/07/20 08:32:10;;;;;;;0.32;0.32;;;;;;;;;;5056191;28;20211;-61
2023/07/20 08:34:37;;;;;;;0.70;0.70;;;;;;;;;;5057810;28;20328;-62
2023/07/20 08:37:04;;;;;;;0.60;0.60;;;;;;;;;;5065694;28;20272;-61
2023/07/20 08:39:31;;;;;;;0.52;0.52;;;;;;;;;;5048054;28;20626;-61
2023/07/20 08:42:04;;;;;;;0.50;0.50;;;;;;;;;;5046896;28;20701;-61
2023/07/20 08:44:31;;;;;;;0.50;0.50;;;;;;;;;;5051962;28;20246;-61
2023/07/20 08:46:59;;;;;;;0.63;0.63;;;;;;;;;;5060847;28;20219;-61
2023/07/20 08:49:26;;;;;;;0.32;0.32;;;;;;;;;;5056644;28;20272;-61
2023/07/20 08:51:54;;;;;;;0.63;0.40;;;;;;;;;;5046735;28;20215;-60
2023/07/20 08:54:21;;;;;;;0.70;0.70;;;;;;;;;;5048526;28;20673;-61
2023/07/20 08:56:48;;;;;;;0.40;0.40;;;;;;;;;;5054895;28;20213;-61
2023/07/20 08:59:18;;;;;;;0.50;0.50;;;;;;;;;;5066029;28;20203;-61
2023/07/20 09:01:46;;;;;;;0.50;0.50;;;;;;;;;;5063611;28;20218;-62
2023/07/20 09:07:15;;;;;;;0.57;0.57;;;;;;;;;;5054869;28;20238;-63
2023/07/20 09:09:42;;;;;;;0.50;0.50;;;;;;;;;;5063869;28;20325;-64
2023/07/20 09:12:14;;;;;;;0.50;0.50;;;;;;;;;;5062808;28;20589;-61
2023/07/20 09:14:44;;;;;;;0.50;0.50;;;;;;;;;;5069964;28;20203;-58
2023/07/20 09:17:14;;;;;;;0.57;0.57;;;;;;;;;;5060310;28;20232;-60
2023/07/20 09:19:46;;;;;;;0.52;0.52;;;;;;;;;;5055095;28;20208;-59
2023/07/20 09:22:13;;;;;;;0.60;0.60;;;;;;;;;;5063811;28;20268;-60
2023/07/20 09:24:41;;;;;;;0.40;0.40;;;;;;;;;;5050403;28;20211;-59
2023/07/20 09:27:09;;;;;;;0.50;0.50;;;;;;;;;;5062266;28;20199;-59
2023/07/20 09:29:36;;;;;;;0.45;0.45;;;;;;;;;;5068891;28;20230;-59
2023/07/20 09:32:05;;;;;;;0.40;0.40;;;;;;;;;;5064123;28;20210;-59
2023/07/20 09:34:32;;;;;;;0.43;0.43;;;;;;;;;;5056909;28;20222;-59
2023/07/20 09:37:00;;;;;;;0.50;0.50;;;;;;;;;;5063598;28;20239;-59
2023/07/20 09:39:27;;;;;;;0.55;0.43;;;;;;;;;;5049776;28;20689;-60
2023/07/20 09:41:54;;;;;;;0.32;0.32;;;;;;;;;;5069592;28;20215;-61
2023/07/20 09:44:21;;;;;;;0.20;0.20;;;;;;;;;;5055294;28;20221;-59
2023/07/20 09:46:48;;;;;;;0.50;0.50;;;;;;;;;;5065369;28;20203;-59
2023/07/20 09:49:18;;;;;;;0.30;0.30;;;;;;;;;;5068971;28;20227;-60
2023/07/20 09:51:46;;;;;;;0.20;0.20;;;;;;;;;;5069501;28;20203;-60
2023/07/20 09:54:13;;;;;;;0.50;0.50;;;;;;;;;;5060332;28;20682;-59
2023/07/20 09:56:41;;;;;;;0.30;0.30;;;;;;;;;;5062592;28;20203;-59
2023/07/20 09:59:08;;;;;;;0.40;0.40;;;;;;;;;;5069173;28;20740;-59
2023/07/20 10:01:38;;;;;;;0.50;0.50;;;;;;;;;;5068452;28;20206;-59
2023/07/20 10:04:05;;;;;;;0.30;0.30;;;;;;;;;;5057469;28;20199;-58
2023/07/20 10:06:34;;;;;;;0.40;0.40;;;;;;;;;;5061872;28;20325;-58
2023/07/20 10:09:17;;;;;;;0.40;0.40;;;;;;;;;;5065547;28;20223;-58
2023/07/20 10:11:45;;;;;;;0.40;0.40;;;;;;;;;;5065591;28;20294;-57
2023/07/20 10:14:13;;;;;;;0.43;0.43;;;;;;;;;;5068286;28;20213;-58
2023/07/20 10:16:42;;;;;;;0.50;0.50;;;;;;;;;;5064097;28;20315;-58
2023/07/20 10:19:15;;;;;;;0.30;0.30;;;;;;;;;;5054709;28;20262;-58
2023/07/20 10:21:44;;;;;;;0.52;0.52;;;;;;;;;;5064263;28;20198;-58
2023/07/20 10:24:12;;;;;;;0.55;0.55;;;;;;;;;;5063151;28;20207;-58
2023/07/20 10:26:39;;;;;;;0.40;0.40;;;;;;;;;;5067123;28;20250;-58
2023/07/20 10:29:06;;;;;;;0.57;0.50;;;;;;;;;;5065486;28;20239;-57
2023/07/20 10:31:34;;;;;;;0.50;0.50;;;;;;;;;;5065563;28;20288;-58
2023/07/20 10:34:01;;;;;;;0.40;0.40;;;;;;;;;;5063160;28;20211;-58
2023/07/20 10:36:28;;;;;;;0.50;0.50;;;;;;;;;;5065571;28;20585;-58
2023/07/20 10:38:57;;;;;;;0.40;0.40;;;;;;;;;;5066809;28;20203;-58
2023/07/20 10:41:29;;;;;;;0.50;0.50;;;;;;;;;;5067848;28;20211;-57
2023/07/20 10:44:00;;;;;;;0.20;0.20;;;;;;;;;;5068174;28;20450;-58
2023/07/20 10:46:44;;;;;;;0.40;0.40;;;;;;;;;;5068133;28;20631;-58
2023/07/20 10:49:12;;;;;;;0.50;0.50;;;;;;;;;;5068059;28;20227;-59
2023/07/20 10:51:43;;;;;;;0.40;0.40;;;;;;;;;;5058684;28;20223;-58
2023/07/20 10:54:31;;;;;;;0.60;0.60;;;;;;;;;;5051873;28;20223;-58
2023/07/20 10:56:59;;;;;;;0.38;0.38;;;;;;;;;;5060569;28;20203;-58
2023/07/20 10:59:39;;;;;;;0.40;0.40;;;;;;;;;;5064384;28;20199;-58
2023/07/20 11:02:08;;;;;;;0.40;0.40;;;;;;;;;;5062525;28;20250;-57
2023/07/20 11:04:41;;;;;;;0.40;0.40;;;;;;;;;;5064764;28;20290;-57
2023/07/20 11:07:09;;;;;;;0.50;0.50;;;;;;;;;;5065087;28;20589;-57
2023/07/20 11:09:38;;;;;;;0.30;0.30;;;;;;;;;;5047395;28;20227;-57
2023/07/20 11:12:11;;;;;;;0.32;0.32;;;;;;;;;;5050703;28;20207;-57
2023/07/20 11:14:41;;;;;;;0.30;0.30;;;;;;;;;;5064554;28;20247;-57
2023/07/20 11:17:13;;;;;;;0.40;0.40;;;;;;;;;;5056840;28;20250;-57
2023/07/20 11:19:40;;;;;;;0.50;0.50;;;;;;;;;;5051446;28;20235;-57
2023/07/20 11:22:09;;;;;;;0.45;0.45;;;;;;;;;;5051843;28;20223;-57
2023/07/20 11:24:42;;;;;;;0.40;0.40;;;;;;;;;;5066563;28;20213;-57
2023/07/20 11:27:09;;;;;;;0.50;0.50;;;;;;;;;;5059993;28;20267;-57
2023/07/20 11:29:37;;;;;;;0.50;0.50;;;;;;;;;;5066424;28;20225;-57
2023/07/20 11:32:04;;;;;;;0.40;0.40;;;;;;;;;;5067585;28;20250;-57
2023/07/20 11:34:32;;;;;;;0.30;0.30;;;;;;;;;;5066886;28;20203;-57
2023/07/20 11:36:59;;;;;;;0.50;0.50;;;;;;;;;;5067582;28;20238;-57
2023/07/20 11:39:26;;;;;;;0.50;0.50;;;;;;;;;;5067841;28;20207;-57
2023/07/20 11:41:56;;;;;;;0.40;0.40;;;;;;;;;;5050384;28;20207;-57
2023/07/20 11:44:26;;;;;;;0.57;0.50;;;;;;;;;;5049355;28;20735;-58
2023/07/20 11:47:01;;;;;;;0.40;0.40;;;;;;;;;;5052932;28;20265;-58
2023/07/20 11:49:28;;;;;;;0.50;0.50;;;;;;;;;;5062717;28;20312;-58
2023/07/20 11:51:56;;;;;;;0.55;0.55;;;;;;;;;;5061561;28;20207;-59
2023/07/20 11:54:23;;;;;;;0.55;0.55;;;;;;;;;;5052270;28;20203;-58
2023/07/20 11:56:54;;;;;;;0.30;0.30;;;;;;;;;;5062497;28;20210;-60
2023/07/20 11:59:23;;;;;;;0.43;0.43;;;;;;;;;;5060000;28;20245;-58
2023/07/20 12:01:50;;;;;;;0.60;0.60;;;;;;;;;;5060070;28;20200;-59
2023/07/20 12:04:17;;;;;;;0.40;0.40;;;;;;;;;;5049694;28;20203;-58
2023/07/20 12:06:46;;;;;;;0.30;0.30;;;;;;;;;;5063852;28;20222;-58
2023/07/20 12:09:15;;;;;;;0.40;0.40;;;;;;;;;;5058556;28;20210;-58
2023/07/20 12:11:44;;;;;;;0.30;0.30;;;;;;;;;;5058394;28;21088;-58
2023/07/20 12:14:11;;;;;;;0.40;0.40;;;;;;;;;;5051898;28;20203;-57
2023/07/20 12:16:40;;;;;;;0.50;0.50;;;;;;;;;;5049615;28;20618;-58
2023/07/20 12:19:08;;;;;;;0.73;0.70;;;;;;;;;;5050564;28;20207;-58
2023/07/20 12:21:36;;;;;;;0.30;0.30;;;;;;;;;;5046939;28;20290;-59
2023/07/20 12:24:03;;;;;;;0.40;0.40;;;;;;;;;;5046983;28;20290;-59
2023/07/20 12:26:30;;;;;;;1.23;0.50;;;;;;;;;;5060766;28;20210;-59
2023/07/20 12:28:58;;;;;;;0.30;0.30;;;;;;;;;;5051695;28;20207;-58
2023/07/20 12:31:25;;;;;;;0.57;0.57;;;;;;;;;;5053094;28;20246;-58
2023/07/20 12:33:55;;;;;;;6.68;0.40;;;;;;;;;;5046770;28;20309;-59
2023/07/20 12:36:22;;;;;;;0.40;0.40;;;;;;;;;;5054223;28;20212;-58
2023/07/20 12:38:49;;;;;;;0.30;0.30;;;;;;;;;;5046653;28;20234;-59
2023/07/20 12:41:16;;;;;;;0.50;0.50;;;;;;;;;;5055083;28;20223;-58
2023/07/20 12:43:43;;;;;;;0.50;0.50;;;;;;;;;;5057640;28;20710;-58
2023/07/20 12:46:11;;;;;;;0.50;0.50;;;;;;;;;;5061557;28;20216;-59
2023/07/20 12:48:40;;;;;;;0.40;0.40;;;;;;;;;;5053490;28;20207;-60
2023/07/20 12:51:09;;;;;;;0.30;0.30;;;;;;;;;;5060480;28;20330;-60
2023/07/20 12:53:36;;;;;;;0.32;0.32;;;;;;;;;;5065664;28;20213;-60
2023/07/20 12:56:04;;;;;;;0.70;0.70;;;;;;;;;;5061692;28;20211;-60
2023/07/20 12:58:31;;;;;;;0.40;0.40;;;;;;;;;;5061925;28;20215;-60
2023/07/20 13:00:58;;;;;;;1.17;0.50;;;;;;;;;;5058065;28;20225;-61
2023/07/20 13:03:25;;;;;;;0.30;0.30;;;;;;;;;;5050895;28;20265;-61
2023/07/20 13:05:52;;;;;;;0.52;0.40;;;;;;;;;;5056822;28;20207;-61
2023/07/20 13:08:25;;;;;;;0.40;0.40;;;;;;;;;;5070922;28;20211;-60
2023/07/20 13:10:52;;;;;;;0.45;0.45;;;;;;;;;;5059643;28;20690;-61
2023/07/20 13:13:19;;;;;;;0.40;0.40;;;;;;;;;;5070508;28;20290;-61
2023/07/20 13:15:47;;;;;;;0.40;0.40;;;;;;;;;;5063835;28;20605;-61
2023/07/20 13:18:14;;;;;;;0.40;0.40;;;;;;;;;;5052346;28;20239;-60
2023/07/20 13:20:41;;;;;;;0.50;0.50;;;;;;;;;;5065863;28;20574;-60
2023/07/20 13:23:09;;;;;;;0.63;0.40;;;;;;;;;;5054271;28;20203;-62
2023/07/20 13:25:37;;;;;;;0.40;0.40;;;;;;;;;;5058557;28;20207;-62
2023/07/20 13:28:08;;;;;;;0.40;0.40;;;;;;;;;;5059252;28;20852;-60
2023/07/20 13:30:35;;;;;;;0.40;0.40;;;;;;;;;;5065484;28;20237;-59
2023/07/20 13:33:02;;;;;;;0.50;0.50;;;;;;;;;;5054538;28;20203;-59
2023/07/20 13:35:29;;;;;;;0.50;0.50;;;;;;;;;;5057193;28;20214;-57
2023/07/20 13:37:56;;;;;;;0.50;0.50;;;;;;;;;;5060242;28;20578;-58
2023/07/20 13:40:24;;;;;;;0.47;0.47;;;;;;;;;;5063362;28;20685;-57
2023/07/20 13:42:52;;;;;;;0.50;0.50;;;;;;;;;;5050042;28;20411;-58
2023/07/20 13:45:19;;;;;;;0.50;0.50;;;;;;;;;;5052493;28;20211;-57
2023/07/20 13:47:46;;;;;;;0.50;0.50;;;;;;;;;;5066089;28;20283;-62
2023/07/20 13:50:13;;;;;;;0.35;0.35;;;;;;;;;;5067317;28;20709;-58
2023/07/20 13:52:40;;;;;;;0.40;0.40;;;;;;;;;;5055853;28;20208;-57
2023/07/20 13:55:08;;;;;;;0.45;0.43;;;;;;;;;;5062314;28;20584;-58
2023/07/20 13:57:35;;;;;;;0.40;0.40;;;;;;;;;;5059441;28;20297;-59
2023/07/20 14:00:04;;;;;;;0.50;0.50;;;;;;;;;;5052396;28;20200;-58
2023/07/20 14:02:34;;;;;;;1.13;0.60;;;;;;;;;;5061153;28;20206;-58
2023/07/20 14:05:02;;;;;;;0.40;0.40;;;;;;;;;;5068555;28;20207;-59
2023/07/20 14:07:29;;;;;;;0.40;0.40;;;;;;;;;;5063201;28;20207;-58
2023/07/20 14:09:56;;;;;;;0.30;0.30;;;;;;;;;;5060328;28;20199;-60
2023/07/20 14:12:23;;;;;;;0.40;0.40;;;;;;;;;;5058893;28;20234;-59
2023/07/20 14:14:50;;;;;;;0.30;0.30;;;;;;;;;;5050861;28;20239;-60
2023/07/20 14:17:18;;;;;;;0.25;0.25;;;;;;;;;;5059490;28;20231;-60
2023/07/20 14:19:45;;;;;;;0.40;0.40;;;;;;;;;;5053442;28;20207;-60
2023/07/20 14:22:12;;;;;;;0.38;0.38;;;;;;;;;;5049529;28;20203;-60
2023/07/20 14:24:39;;;;;;;0.40;0.40;;;;;;;;;;5049827;28;20212;-60
2023/07/20 14:27:07;;;;;;;0.57;0.57;;;;;;;;;;5059089;28;20204;-60
2023/07/20 14:29:36;;;;;;;0.50;0.50;;;;;;;;;;5063466;28;20934;-60
2023/07/20 14:32:05;;;;;;;0.52;0.52;;;;;;;;;;5051261;28;20326;-60
2023/07/20 14:34:34;;;;;;;0.30;0.30;;;;;;;;;;5048109;28;20215;-58
2023/07/20 14:37:01;;;;;;;0.47;0.30;;;;;;;;;;5051335;28;20203;-60
2023/07/20 14:39:28;;;;;;;0.43;0.43;;;;;;;;;;5048141;28;20211;-59
2023/07/20 14:41:55;;;;;;;0.30;0.30;;;;;;;;;;5064053;28;20568;-60
2023/07/20 14:44:22;;;;;;;0.30;0.30;;;;;;;;;;5067705;28;20705;-60
2023/07/20 14:46:49;;;;;;;0.40;0.40;;;;;;;;;;5066063;28;20218;-60
2023/07/20 14:49:17;;;;;;;0.40;0.40;;;;;;;;;;5047455;28;20658;-59
2023/07/20 14:51:46;;;;;;;0.30;0.30;;;;;;;;;;5061031;28;20737;-59
2023/07/20 14:54:14;;;;;;;0.47;0.47;;;;;;;;;;5063676;28;20208;-60